Time;durP1;ratioP1;P1;durP2;ratioP2;P2;SDS_P1;SDS_P2;PMS_P1;PMS_P2;Temp;Humidity;BMP_temperature;BMP_pressure;BME280_temperature;BME280_humidity;BME280_pressure;Samples;Min_cycle;Max_cycle;Signal;HPM_P1;HPM_P2
2021/11/15 00:01:15;;;;;;;;;;;8.40;99.90;;;;;;5046833;28;19952;-72
2021/11/15 00:03:42;;;;;;;;;;;8.40;99.90;;;;;;5058384;28;19992;-72
2021/11/15 00:06:08;;;;;;;;;;;8.40;99.90;;;;;;5044441;28;19960;-72
2021/11/15 00:08:33;;;;;;;;;;;8.20;99.90;;;;;;5043455;28;20453;-72
2021/11/15 00:10:59;;;;;;;;;;;8.20;99.90;;;;;;5058833;28;19971;-72
2021/11/15 00:13:24;;;;;;;;;;;8.20;99.90;;;;;;5047627;28;19955;-72
2021/11/15 00:15:50;;;;;;;;;;;8.10;99.90;;;;;;5060681;28;19956;-72
2021/11/15 00:18:15;;;;;;;;;;;8.10;99.90;;;;;;5066649;28;19973;-73
2021/11/15 00:20:41;;;;;;;;;;;8.30;99.90;;;;;;5067981;28;19947;-72
2021/11/15 00:23:07;;;;;;;;;;;8.20;99.90;;;;;;5047672;28;19938;-72
2021/11/15 00:25:33;;;;;;;;;;;8.10;99.90;;;;;;5063508;28;19951;-72
2021/11/15 00:27:59;;;;;;;;;;;8.20;99.90;;;;;;5064013;28;19953;-73
2021/11/15 00:30:24;;;;;;;;;;;8.20;99.90;;;;;;5061694;28;20391;-72
2021/11/15 00:32:50;;;;;;;;;;;8.20;99.90;;;;;;5057319;28;20049;-72
2021/11/15 00:35:16;;;;;;;;;;;8.20;99.90;;;;;;5068631;28;19952;-73
2021/11/15 00:37:42;;;;;;;;;;;8.20;99.90;;;;;;5068484;28;19969;-72
2021/11/15 00:40:09;;;;;;;;;;;8.20;99.90;;;;;;5060340;28;19982;-72
2021/11/15 00:42:35;;;;;;;;;;;8.20;99.90;;;;;;5066233;28;20011;-72
2021/11/15 00:45:00;;;;;;;;;;;8.20;99.90;;;;;;5068052;28;20481;-72
2021/11/15 00:47:26;;;;;;;;;;;8.10;99.90;;;;;;5068372;28;19950;-73
2021/11/15 00:49:51;;;;;;;;;;;7.90;99.90;;;;;;5067097;28;19975;-73
2021/11/15 00:52:17;;;;;;;;;;;8.10;99.90;;;;;;5062320;28;19985;-72
2021/11/15 00:54:42;;;;;;;;;;;8.20;99.90;;;;;;5069826;28;19963;-72
2021/11/15 00:57:08;;;;;;;;;;;8.20;99.90;;;;;;5063889;28;20021;-72
2021/11/15 00:59:33;;;;;;;;;;;8.20;99.90;;;;;;5046964;28;19987;-72
2021/11/15 01:02:00;;;;;;;;;;;8.10;99.90;;;;;;5044773;28;19938;-72
2021/11/15 01:04:26;;;;;;;;;;;8.00;99.90;;;;;;5041223;28;20456;-72
2021/11/15 01:06:52;;;;;;;;;;;8.00;99.90;;;;;;5056539;28;19942;-72
2021/11/15 01:09:18;;;;;;;;;;;8.10;99.90;;;;;;5039034;28;19943;-72
2021/11/15 01:11:43;;;;;;;;;;;8.20;99.90;;;;;;5066211;28;19991;-72
2021/11/15 01:14:09;;;;;;;;;;;8.20;99.90;;;;;;5060796;28;20759;-72
2021/11/15 01:16:34;;;;;;;;;;;8.10;99.90;;;;;;5065270;28;19953;-72
2021/11/15 01:19:00;;;;;;;;;;;8.20;99.90;;;;;;5064364;28;20409;-72
2021/11/15 01:21:28;;;;;;;;;;;8.00;99.90;;;;;;5061783;28;19964;-72
2021/11/15 01:23:54;;;;;;;;;;;8.10;99.90;;;;;;5061106;28;20292;-72
2021/11/15 01:26:20;;;;;;;;;;;8.10;99.90;;;;;;5058951;28;19948;-72
2021/11/15 01:28:45;;;;;;;;;;;7.90;99.90;;;;;;5059620;28;19959;-72
2021/11/15 01:31:11;;;;;;;;;;;8.00;99.90;;;;;;5060380;28;19974;-72
2021/11/15 01:33:36;;;;;;;;;;;8.00;99.90;;;;;;5065674;28;19960;-72
2021/11/15 01:36:02;;;;;;;;;;;8.00;99.90;;;;;;5063939;28;19946;-72
2021/11/15 01:38:27;;;;;;;;;;;8.10;99.90;;;;;;5062251;28;20002;-73
2021/11/15 01:40:53;;;;;;;;;;;8.10;99.90;;;;;;5050335;28;19943;-73
2021/11/15 01:43:18;;;;;;;;;;;8.00;99.90;;;;;;5060528;28;20673;-73
2021/11/15 01:45:44;;;;;;;;;;;7.90;99.90;;;;;;5065769;28;19998;-73
2021/11/15 01:48:12;;;;;;;;;;;7.90;99.90;;;;;;5066901;28;19949;-72
2021/11/15 01:50:38;;;;;;;;;;;7.90;99.90;;;;;;5062121;28;19940;-72
2021/11/15 01:53:05;;;;;;;;;;;7.90;99.90;;;;;;5067349;28;19951;-72
2021/11/15 01:55:31;;;;;;;;;;;7.90;99.90;;;;;;5064396;28;20016;-72
2021/11/15 01:57:57;;;;;;;;;;;7.90;99.90;;;;;;5036544;28;20008;-72
2021/11/15 02:00:34;;;;;;;;;;;7.90;99.90;;;;;;5063656;28;19953;-72
2021/11/15 02:03:00;;;;;;;;;;;7.80;99.90;;;;;;5063850;28;19941;-73
2021/11/15 02:05:25;;;;;;;;;;;7.90;99.90;;;;;;5066285;28;20444;-73
2021/11/15 02:07:51;;;;;;;;;;;7.90;99.90;;;;;;5047749;28;20090;-72
2021/11/15 02:10:16;;;;;;;;;;;7.90;99.90;;;;;;5060635;28;19960;-72
2021/11/15 02:12:42;;;;;;;;;;;7.80;99.90;;;;;;5065077;28;19949;-72
2021/11/15 02:15:10;;;;;;;;;;;7.80;99.90;;;;;;5062933;28;19945;-73
2021/11/15 02:17:36;;;;;;;;;;;7.80;99.90;;;;;;5062596;28;19963;-73
2021/11/15 02:20:04;;;;;;;;;;;7.80;99.90;;;;;;5063346;28;20537;-73
2021/11/15 02:22:30;;;;;;;;;;;7.90;99.90;;;;;;5066425;28;20566;-73
2021/11/15 02:24:55;;;;;;;;;;;8.00;99.90;;;;;;5058882;28;19958;-72
2021/11/15 02:27:21;;;;;;;;;;;7.80;99.90;;;;;;5059864;28;19950;-73
2021/11/15 02:29:46;;;;;;;;;;;7.80;99.90;;;;;;5064476;28;19942;-72
2021/11/15 02:32:12;;;;;;;;;;;7.80;99.90;;;;;;5057954;28;19982;-73
2021/11/15 02:34:38;;;;;;;;;;;7.80;99.90;;;;;;5059940;28;19958;-72
2021/11/15 02:37:04;;;;;;;;;;;7.80;99.90;;;;;;5046902;28;20688;-72
2021/11/15 02:39:29;;;;;;;;;;;7.80;99.90;;;;;;5058826;28;19942;-72
2021/11/15 02:41:55;;;;;;;;;;;7.90;99.90;;;;;;5038767;28;20030;-72
2021/11/15 02:44:20;;;;;;;;;;;7.90;99.90;;;;;;5061833;28;19934;-73
2021/11/15 02:46:45;;;;;;;;;;;8.00;99.90;;;;;;5046516;28;19990;-73
2021/11/15 02:49:11;;;;;;;;;;;8.10;99.90;;;;;;5056125;28;20075;-73
2021/11/15 02:51:37;;;;;;;;;;;8.10;99.90;;;;;;5065002;28;19937;-73
2021/11/15 02:54:02;;;;;;;;;;;8.00;99.90;;;;;;5061792;28;19945;-73
2021/11/15 02:56:28;;;;;;;;;;;7.90;99.90;;;;;;5065700;28;20028;-73
2021/11/15 02:58:53;;;;;;;;;;;7.80;99.90;;;;;;5038590;28;19942;-73
2021/11/15 03:01:20;;;;;;;;;;;7.80;99.90;;;;;;5057424;28;19942;-73
2021/11/15 03:03:46;;;;;;;;;;;7.90;99.90;;;;;;5046272;28;19988;-72
2021/11/15 03:06:12;;;;;;;;;;;7.80;99.90;;;;;;5063228;28;20769;-72
2021/11/15 03:08:38;;;;;;;;;;;7.90;99.90;;;;;;5063265;28;19945;-72
2021/11/15 03:11:05;;;;;;;;;;;7.90;99.90;;;;;;5062842;28;20049;-72
2021/11/15 03:13:32;;;;;;;;;;;7.90;99.90;;;;;;5061700;28;19941;-72
2021/11/15 03:15:58;;;;;;;;;;;7.90;99.90;;;;;;5059924;28;19951;-72
2021/11/15 03:18:25;;;;;;;;;;;7.90;99.90;;;;;;5056166;28;19955;-72
2021/11/15 03:20:53;;;;;;;;;;;7.90;99.90;;;;;;5044519;28;19955;-73
2021/11/15 03:23:20;;;;;;;;;;;7.80;99.90;;;;;;5064918;28;19942;-73
2021/11/15 03:25:46;;;;;;;;;;;7.90;99.90;;;;;;5064265;28;19945;-73
2021/11/15 03:28:13;;;;;;;;;;;7.80;99.90;;;;;;5064135;28;20399;-72
2021/11/15 03:30:39;;;;;;;;;;;7.90;99.90;;;;;;5071693;28;19942;-72
2021/11/15 03:33:05;;;;;;;;;;;7.90;99.90;;;;;;5064101;28;20458;-72
2021/11/15 03:35:31;;;;;;;;;;;7.80;99.90;;;;;;5067682;28;19985;-72
2021/11/15 03:37:56;;;;;;;;;;;7.70;99.90;;;;;;5067951;28;19962;-73
2021/11/15 03:40:24;;;;;;;;;;;7.70;99.90;;;;;;5058042;28;19944;-72
2021/11/15 03:42:54;;;;;;;;;;;7.80;99.90;;;;;;5061289;28;20006;-72
2021/11/15 03:45:20;;;;;;;;;;;7.80;99.90;;;;;;5065064;28;19946;-72
2021/11/15 03:47:46;;;;;;;;;;;7.70;99.90;;;;;;5058916;28;20024;-72
2021/11/15 03:50:12;;;;;;;;;;;7.60;99.90;;;;;;5045424;28;19978;-72
2021/11/15 03:52:39;;;;;;;;;;;7.80;99.90;;;;;;5061181;28;20039;-72
2021/11/15 03:55:06;;;;;;;;;;;7.70;99.90;;;;;;5048619;28;20030;-73
2021/11/15 03:57:31;;;;;;;;;;;7.60;99.90;;;;;;5061709;28;20694;-73
2021/11/15 03:59:57;;;;;;;;;;;7.50;99.90;;;;;;5068036;28;20027;-73
2021/11/15 04:02:27;;;;;;;;;;;7.60;99.90;;;;;;5060610;28;19946;-73
2021/11/15 04:04:56;;;;;;;;;;;7.60;99.90;;;;;;5049087;28;20026;-73
2021/11/15 04:07:34;;;;;;;;;;;7.60;99.90;;;;;;5062432;28;19942;-73
2021/11/15 04:10:02;;;;;;;;;;;7.60;99.90;;;;;;5068659;28;20383;-73
2021/11/15 04:12:28;;;;;;;;;;;7.40;99.90;;;;;;5063409;28;19953;-73
2021/11/15 04:14:54;;;;;;;;;;;7.50;99.90;;;;;;5064337;28;20062;-73
2021/11/15 04:17:20;;;;;;;;;;;7.50;99.90;;;;;;5059302;28;20363;-74
2021/11/15 04:19:47;;;;;;;;;;;7.50;99.90;;;;;;5065940;28;20391;-73
2021/11/15 04:22:13;;;;;;;;;;;7.30;99.90;;;;;;5067284;28;19948;-74
2021/11/15 04:24:38;;;;;;;;;;;7.30;99.90;;;;;;5046636;28;19946;-73
2021/11/15 04:27:05;;;;;;;;;;;7.20;99.90;;;;;;5068485;28;20276;-73
2021/11/15 04:29:31;;;;;;;;;;;7.40;99.90;;;;;;5060857;28;19942;-74
2021/11/15 04:31:57;;;;;;;;;;;7.50;99.90;;;;;;5049871;28;19940;-74
2021/11/15 04:34:22;;;;;;;;;;;7.60;99.90;;;;;;5047443;28;19959;-74
2021/11/15 04:36:48;;;;;;;;;;;7.60;99.90;;;;;;5056317;28;20721;-74
2021/11/15 04:39:13;;;;;;;;;;;7.70;99.90;;;;;;5070943;28;20488;-73
2021/11/15 04:41:39;;;;;;;;;;;7.70;99.90;;;;;;5057486;28;19995;-73
2021/11/15 04:44:04;;;;;;;;;;;7.50;99.90;;;;;;5059555;28;20002;-74
2021/11/15 04:46:30;;;;;;;;;;;7.50;99.90;;;;;;5052392;28;19953;-73
2021/11/15 04:48:55;;;;;;;;;;;7.30;99.90;;;;;;5064734;28;20013;-73
2021/11/15 04:51:21;;;;;;;;;;;7.50;99.90;;;;;;5069313;28;20356;-73
2021/11/15 04:53:46;;;;;;;;;;;7.50;99.90;;;;;;5061193;28;20033;-75
2021/11/15 04:56:12;;;;;;;;;;;7.40;99.90;;;;;;5070466;28;19952;-74
2021/11/15 04:58:38;;;;;;;;;;;7.30;99.90;;;;;;5042954;28;20035;-73
2021/11/15 05:01:04;;;;;;;;;;;7.40;99.90;;;;;;5048235;28;19946;-73
2021/11/15 05:03:30;;;;;;;;;;;7.30;99.90;;;;;;5067137;28;19955;-73
2021/11/15 05:05:55;;;;;;;;;;;7.40;99.90;;;;;;5064281;28;19936;-73
2021/11/15 05:08:21;;;;;;;;;;;7.40;99.90;;;;;;5060645;28;19929;-73
2021/11/15 05:10:46;;;;;;;;;;;7.30;99.90;;;;;;5066481;28;20345;-73
2021/11/15 05:13:12;;;;;;;;;;;7.30;99.90;;;;;;5051907;28;19975;-73
2021/11/15 05:15:37;;;;;;;;;;;7.40;99.90;;;;;;5062053;28;19941;-73
2021/11/15 05:18:03;;;;;;;;;;;7.20;99.90;;;;;;5044548;28;19962;-73
2021/11/15 05:20:29;;;;;;;;;;;7.20;99.90;;;;;;5065406;28;19938;-73
2021/11/15 05:22:54;;;;;;;;;;;7.30;99.90;;;;;;5065186;28;20616;-73
2021/11/15 05:25:20;;;;;;;;;;;7.30;99.90;;;;;;5045589;28;19941;-73
2021/11/15 05:27:46;;;;;;;;;;;7.40;99.90;;;;;;5061117;28;20378;-73
2021/11/15 05:30:13;;;;;;;;;;;7.50;99.90;;;;;;5045227;28;19980;-73
2021/11/15 05:32:38;;;;;;;;;;;7.50;99.90;;;;;;5066216;28;20393;-73
2021/11/15 05:35:04;;;;;;;;;;;7.50;99.90;;;;;;5067082;28;20002;-73
2021/11/15 05:37:30;;;;;;;;;;;7.60;99.90;;;;;;5066167;28;19949;-73
2021/11/15 05:39:55;;;;;;;;;;;7.50;99.90;;;;;;5060637;28;19942;-73
2021/11/15 05:42:21;;;;;;;;;;;7.30;99.90;;;;;;5065289;28;19945;-73
2021/11/15 05:44:46;;;;;;;;;;;7.40;99.90;;;;;;5059344;28;19960;-73
2021/11/15 05:47:12;;;;;;;;;;;7.20;99.90;;;;;;5051634;28;20011;-73
2021/11/15 05:49:37;;;;;;;;;;;7.30;99.90;;;;;;5046199;28;20521;-73
2021/11/15 05:52:03;;;;;;;;;;;7.30;99.90;;;;;;5066339;28;19992;-73
2021/11/15 05:54:29;;;;;;;;;;;7.30;99.90;;;;;;5067841;28;19946;-73
2021/11/15 05:56:54;;;;;;;;;;;7.40;99.90;;;;;;5069756;28;19963;-73
2021/11/15 05:59:22;;;;;;;;;;;7.40;99.90;;;;;;5060229;28;20558;-73
2021/11/15 06:01:47;;;;;;;;;;;7.40;99.90;;;;;;5049018;28;20064;-73
2021/11/15 06:04:13;;;;;;;;;;;7.20;99.90;;;;;;5061575;28;19954;-73
2021/11/15 06:06:38;;;;;;;;;;;7.30;99.90;;;;;;5042755;28;20303;-73
2021/11/15 06:09:04;;;;;;;;;;;7.10;99.90;;;;;;5066354;28;19956;-73
2021/11/15 06:11:30;;;;;;;;;;;7.20;99.90;;;;;;5062781;28;20035;-73
2021/11/15 06:13:55;;;;;;;;;;;7.10;99.90;;;;;;5044716;28;20353;-73
2021/11/15 06:16:21;;;;;;;;;;;7.00;99.90;;;;;;5062470;28;20330;-72
2021/11/15 06:18:46;;;;;;;;;;;7.00;99.90;;;;;;5068765;28;20527;-73
2021/11/15 06:21:12;;;;;;;;;;;7.10;99.90;;;;;;5061973;28;19960;-73
2021/11/15 06:23:38;;;;;;;;;;;7.00;99.90;;;;;;5043449;28;20334;-73
2021/11/15 06:26:03;;;;;;;;;;;7.00;99.90;;;;;;5057815;28;20426;-73
2021/11/15 06:28:29;;;;;;;;;;;6.80;99.90;;;;;;5047937;28;20423;-73
2021/11/15 06:30:54;;;;;;;;;;;7.00;99.90;;;;;;5059856;28;19980;-73
2021/11/15 06:33:20;;;;;;;;;;;7.00;99.90;;;;;;5061078;28;19961;-73
2021/11/15 06:35:45;;;;;;;;;;;7.10;99.90;;;;;;5068071;28;20459;-73
2021/11/15 06:38:11;;;;;;;;;;;7.00;99.90;;;;;;5047417;28;20022;-73
2021/11/15 06:40:37;;;;;;;;;;;7.00;99.90;;;;;;5063015;28;19961;-73
2021/11/15 06:43:03;;;;;;;;;;;6.90;99.90;;;;;;5059628;28;19951;-73
2021/11/15 06:45:30;;;;;;;;;;;7.10;99.90;;;;;;5050279;28;19956;-73
2021/11/15 06:47:56;;;;;;;;;;;6.90;99.90;;;;;;5049710;28;19948;-73
2021/11/15 06:50:22;;;;;;;;;;;6.90;99.90;;;;;;5068695;28;19968;-73
2021/11/15 06:52:48;;;;;;;;;;;6.90;99.90;;;;;;5067398;28;19933;-73
2021/11/15 06:55:15;;;;;;;;;;;7.00;99.90;;;;;;5049035;28;19942;-73
2021/11/15 06:57:41;;;;;;;;;;;7.10;99.90;;;;;;5042697;28;19972;-73
2021/11/15 07:00:08;;;;;;;;;;;6.90;99.90;;;;;;5065104;28;20380;-73
2021/11/15 07:02:34;;;;;;;;;;;7.00;99.90;;;;;;5068444;28;19944;-73
2021/11/15 07:04:59;;;;;;;;;;;7.10;99.90;;;;;;5066397;28;19938;-73
2021/11/15 07:07:25;;;;;;;;;;;7.10;99.90;;;;;;5062795;28;20029;-73
2021/11/15 07:09:50;;;;;;;;;;;7.10;99.90;;;;;;5046973;28;19924;-73
2021/11/15 07:12:16;;;;;;;;;;;7.10;99.90;;;;;;5067433;28;20005;-73
2021/11/15 07:14:42;;;;;;;;;;;7.20;99.90;;;;;;5058757;28;20326;-73
2021/11/15 07:17:07;;;;;;;;;;;7.10;99.90;;;;;;5048777;28;19944;-73
2021/11/15 07:19:34;;;;;;;;;;;7.00;99.90;;;;;;5060480;28;20312;-74
2021/11/15 07:21:59;;;;;;;;;;;7.20;99.90;;;;;;5067192;28;20022;-73
2021/11/15 07:24:25;;;;;;;;;;;7.20;99.90;;;;;;5067697;28;20021;-73
2021/11/15 07:26:50;;;;;;;;;;;7.10;99.90;;;;;;5065767;28;19926;-72
2021/11/15 07:29:16;;;;;;;;;;;7.10;99.90;;;;;;5057240;28;20320;-72
2021/11/15 07:31:43;;;;;;;;;;;7.00;99.90;;;;;;5062571;28;19937;-72
2021/11/15 07:34:08;;;;;;;;;;;7.00;99.90;;;;;;5063026;28;19956;-74
2021/11/15 07:36:35;;;;;;;;;;;7.10;99.90;;;;;;5062337;28;19959;-73
2021/11/15 07:39:01;;;;;;;;;;;7.10;99.90;;;;;;5062598;28;20557;-74
2021/11/15 07:41:26;;;;;;;;;;;6.90;99.90;;;;;;5046497;28;20019;-75
2021/11/15 07:43:52;;;;;;;;;;;7.00;99.90;;;;;;5062788;28;20023;-72
2021/11/15 07:46:17;;;;;;;;;;;7.00;99.90;;;;;;5064223;28;19935;-74
2021/11/15 07:48:43;;;;;;;;;;;7.20;99.90;;;;;;5062889;28;19975;-74
2021/11/15 07:51:09;;;;;;;;;;;7.10;99.90;;;;;;5058523;28;19936;-75
2021/11/15 07:53:37;;;;;;;;;;;7.20;99.90;;;;;;5062768;28;20499;-75
2021/11/15 07:56:07;;;;;;;;;;;7.00;99.90;;;;;;5064104;28;19941;-72
2021/11/15 07:58:33;;;;;;;;;;;7.00;99.90;;;;;;5055862;28;19996;-72
2021/11/15 08:00:59;;;;;;;;;;;6.90;99.90;;;;;;5061680;28;20028;-74
2021/11/15 08:03:25;;;;;;;;;;;7.00;99.90;;;;;;5064020;28;20320;-72
2021/11/15 08:05:50;;;;;;;;;;;6.90;99.90;;;;;;5057902;28;20434;-73
2021/11/15 08:08:16;;;;;;;;;;;6.90;99.90;;;;;;5064555;28;20400;-72
2021/11/15 08:10:41;;;;;;;;;;;6.90;99.90;;;;;;5046981;28;19934;-73
2021/11/15 08:13:07;;;;;;;;;;;7.10;99.90;;;;;;5060497;28;19950;-73
2021/11/15 08:15:32;;;;;;;;;;;7.20;99.90;;;;;;5057831;28;19946;-73
2021/11/15 08:17:59;;;;;;;;;;;7.20;99.90;;;;;;5065253;28;19945;-74
2021/11/15 08:20:26;;;;;;;;;;;7.00;99.90;;;;;;5038169;28;19930;-72
2021/11/15 08:22:53;;;;;;;;;;;6.90;99.90;;;;;;5064012;28;19929;-74
2021/11/15 08:25:49;;;;;;;;;;;6.90;99.90;;;;;;5044152;28;20283;-72
2021/11/15 08:28:15;;;;;;;;;;;6.90;99.90;;;;;;5065138;28;19926;-72
2021/11/15 08:30:41;;;;;;;;;;;6.80;99.90;;;;;;5069078;28;19925;-72
2021/11/15 08:33:08;;;;;;;;;;;6.90;99.90;;;;;;5045410;28;19950;-73
2021/11/15 08:35:33;;;;;;;;;;;7.00;99.90;;;;;;5061517;28;19927;-72
2021/11/15 08:37:59;;;;;;;;;;;7.10;99.90;;;;;;5065715;28;19961;-72
2021/11/15 08:40:25;;;;;;;;;;;7.10;99.90;;;;;;5064170;28;19996;-73
2021/11/15 08:42:52;;;;;;;;;;;7.00;99.90;;;;;;5067724;28;20353;-73
2021/11/15 08:45:18;;;;;;;;;;;6.90;99.90;;;;;;5067255;28;20256;-75
2021/11/15 08:47:44;;;;;;;;;;;7.00;99.90;;;;;;5068388;28;19969;-73
2021/11/15 08:50:09;;;;;;;;;;;7.10;99.90;;;;;;5048103;28;19970;-73
2021/11/15 08:52:35;;;;;;;;;;;7.10;99.90;;;;;;5061585;28;20392;-73
2021/11/15 08:55:00;;;;;;;;;;;7.20;99.90;;;;;;5045149;28;20433;-73
2021/11/15 08:57:27;;;;;;;;;;;7.10;99.90;;;;;;5066694;28;19949;-73
2021/11/15 08:59:55;;;;;;;;;;;7.20;99.90;;;;;;5063832;28;20686;-73
2021/11/15 09:02:21;;;;;;;;;;;7.10;99.90;;;;;;5063717;28;20391;-73
2021/11/15 09:04:46;;;;;;;;;;;6.90;99.90;;;;;;5060880;28;19942;-73
2021/11/15 09:07:12;;;;;;;;;;;7.00;99.90;;;;;;5058097;28;20332;-73
2021/11/15 09:09:38;;;;;;;;;;;7.00;99.90;;;;;;5044292;28;19964;-73
2021/11/15 09:12:06;;;;;;;;;;;7.10;99.90;;;;;;5066749;28;19987;-73
2021/11/15 09:14:31;;;;;;;;;;;7.00;99.90;;;;;;5065391;28;19926;-73
2021/11/15 09:16:57;;;;;;;;;;;7.10;99.90;;;;;;5064128;28;19944;-73
2021/11/15 09:19:23;;;;;;;;;;;7.10;99.90;;;;;;5057746;28;19988;-73
2021/11/15 09:21:49;;;;;;;;;;;7.20;99.90;;;;;;5067399;28;20520;-73
2021/11/15 09:24:15;;;;;;;;;;;7.20;99.90;;;;;;5059242;28;20030;-73
2021/11/15 09:26:41;;;;;;;;;;;7.10;99.90;;;;;;5052556;28;20056;-73
2021/11/15 09:29:07;;;;;;;;;;;7.00;99.90;;;;;;5066439;28;19942;-73
2021/11/15 09:31:34;;;;;;;;;;;7.10;99.90;;;;;;5058950;28;19937;-73
2021/11/15 09:34:00;;;;;;;;;;;7.00;99.90;;;;;;5063969;28;19958;-73
2021/11/15 09:36:25;;;;;;;;;;;7.20;99.90;;;;;;5060397;28;19934;-73
2021/11/15 09:38:53;;;;;;;;;;;7.30;99.90;;;;;;5069689;28;20292;-74
2021/11/15 09:41:19;;;;;;;;;;;7.20;99.90;;;;;;5056836;28;20358;-73
2021/11/15 09:43:45;;;;;;;;;;;7.10;99.90;;;;;;5062628;28;19929;-73
2021/11/15 09:46:15;;;;;;;;;;;7.30;99.90;;;;;;5063164;28;19982;-73
2021/11/15 09:48:42;;;;;;;;;;;7.40;99.90;;;;;;5065558;28;20000;-73
2021/11/15 09:51:08;;;;;;;;;;;7.40;99.90;;;;;;5063782;28;19938;-73
2021/11/15 09:53:34;;;;;;;;;;;7.40;99.90;;;;;;5064356;28;20019;-73
2021/11/15 09:56:00;;;;;;;;;;;7.40;99.90;;;;;;5062663;28;19933;-73
2021/11/15 09:58:27;;;;;;;;;;;7.40;99.90;;;;;;5059732;28;19952;-73
2021/11/15 10:00:52;;;;;;;;;;;7.60;99.90;;;;;;5042362;28;19994;-73
2021/11/15 10:03:18;;;;;;;;;;;7.60;99.90;;;;;;5040867;28;20345;-73
2021/11/15 10:05:44;;;;;;;;;;;7.30;99.90;;;;;;5061032;28;20015;-73
2021/11/15 10:08:12;;;;;;;;;;;7.50;99.90;;;;;;5059181;28;19965;-73
2021/11/15 10:10:40;;;;;;;;;;;7.60;99.90;;;;;;5036573;28;19980;-73
2021/11/15 10:13:10;;;;;;;;;;;7.60;99.90;;;;;;5064429;28;19931;-73
2021/11/15 10:16:00;;;;;;;;;;;7.50;99.90;;;;;;5060626;28;20437;-73
2021/11/15 10:18:30;;;;;;;;;;;7.40;99.90;;;;;;5067673;28;19940;-73
2021/11/15 10:20:56;;;;;;;;;;;7.40;99.90;;;;;;5064282;28;19930;-73
2021/11/15 10:23:27;;;;;;;;;;;7.70;99.90;;;;;;5048231;28;19927;-73
2021/11/15 10:25:58;;;;;;;;;;;7.50;99.90;;;;;;5041563;28;20051;-73
2021/11/15 10:28:23;;;;;;;;;;;7.40;99.90;;;;;;5048187;28;20406;-73
2021/11/15 10:30:49;;;;;;;;;;;7.40;99.90;;;;;;5038351;28;20030;-73
2021/11/15 10:33:17;;;;;;;;;;;7.50;99.90;;;;;;5048330;28;20031;-73
2021/11/15 10:35:45;;;;;;;;;;;7.60;99.90;;;;;;5065591;28;19926;-73
2021/11/15 10:38:10;;;;;;;;;;;7.50;99.90;;;;;;5059225;28;20030;-73
2021/11/15 10:40:37;;;;;;;;;;;7.50;99.90;;;;;;5048595;28;20392;-73
2021/11/15 10:43:07;;;;;;;;;;;7.40;99.90;;;;;;5044966;28;19943;-73
2021/11/15 10:45:34;;;;;;;;;;;7.40;99.90;;;;;;5063597;28;20025;-73
2021/11/15 10:48:07;;;;;;;;;;;7.50;99.90;;;;;;5061213;28;19936;-73
2021/11/15 10:50:48;;;;;;;;;;;7.40;99.90;;;;;;5061588;28;19934;-73
2021/11/15 10:53:26;;;;;;;;;;;7.50;99.90;;;;;;5058448;28;20029;-73
2021/11/15 10:56:13;;;;;;;;;;;7.70;99.90;;;;;;5059979;28;19922;-73
2021/11/15 10:58:46;;;;;;;;;;;7.60;99.90;;;;;;5068694;28;19942;-73
2021/11/15 11:01:11;;;;;;;;;;;7.50;99.90;;;;;;5066960;28;20411;-73
2021/11/15 11:03:38;;;;;;;;;;;7.70;99.90;;;;;;5048713;28;19929;-73
2021/11/15 11:06:06;;;;;;;;;;;7.80;99.90;;;;;;5047506;28;19969;-73
2021/11/15 11:08:39;;;;;;;;;;;7.80;99.90;;;;;;5065601;28;19990;-73
2021/11/15 11:11:09;;;;;;;;;;;7.60;99.90;;;;;;5065333;28;20048;-73
2021/11/15 11:13:47;;;;;;;;;;;7.40;99.90;;;;;;5046043;28;20361;-73
2021/11/15 11:16:12;;;;;;;;;;;7.60;99.90;;;;;;5066243;28;20637;-73
2021/11/15 11:26:18;;;;;;;;;;;7.20;99.90;;;;;;5067845;28;20451;-73
2021/11/15 11:28:46;;;;;;;;;;;7.10;99.90;;;;;;5063317;28;20528;-73
2021/11/15 11:31:14;;;;;;;;;;;7.40;99.90;;;;;;5048965;28;19944;-73
2021/11/15 11:33:40;;;;;;;;;;;7.60;99.90;;;;;;5063734;28;19972;-73
2021/11/15 11:36:06;;;;;;;;;;;7.80;99.90;;;;;;5044800;28;19947;-73
2021/11/15 11:38:33;;;;;;;;;;;7.50;99.90;;;;;;5066278;28;20084;-73
2021/11/15 11:40:58;;;;;;;;;;;7.60;99.90;;;;;;5049392;28;20001;-73
2021/11/15 11:43:25;;;;;;;;;;;7.70;99.90;;;;;;5065657;28;20390;-73
2021/11/15 11:45:50;;;;;;;;;;;7.70;99.90;;;;;;5053867;28;19993;-73
2021/11/15 11:48:16;;;;;;;;;;;7.80;99.90;;;;;;5064060;28;20040;-74
2021/11/15 11:50:43;;;;;;;;;;;7.70;99.90;;;;;;5068417;28;19950;-73
2021/11/15 11:53:09;;;;;;;;;;;7.70;99.90;;;;;;5069971;28;19992;-73
2021/11/15 11:55:36;;;;;;;;;;;7.70;99.90;;;;;;5066366;28;19955;-73
2021/11/15 11:58:20;;;;;;;;;;;7.70;99.90;;;;;;5067532;28;19959;-73
2021/11/15 12:00:47;;;;;;;;;;;7.80;99.90;;;;;;5057932;28;19950;-73
2021/11/15 12:03:12;;;;;;;;;;;7.80;99.90;;;;;;5050291;28;20439;-73
2021/11/15 12:05:38;;;;;;;;;;;7.70;99.90;;;;;;5069672;28;20048;-73
2021/11/15 12:08:08;;;;;;;;;;;7.70;99.90;;;;;;5061221;28;20307;-73
2021/11/15 12:10:36;;;;;;;;;;;7.70;99.90;;;;;;5047425;28;19948;-73
2021/11/15 12:13:05;;;;;;;;;;;7.80;99.90;;;;;;5063214;28;20035;-73
2021/11/15 12:15:33;;;;;;;;;;;7.70;99.90;;;;;;5048004;28;20400;-73
2021/11/15 12:18:11;;;;;;;;;;;7.50;99.90;;;;;;5062770;28;20575;-73
2021/11/15 12:20:57;;;;;;;;;;;7.40;99.90;;;;;;5042062;28;20545;-73
2021/11/15 12:23:23;;;;;;;;;;;7.50;99.90;;;;;;5064168;28;19945;-73
2021/11/15 12:26:07;;;;;;;;;;;7.20;99.90;;;;;;5065476;28;19939;-73
2021/11/15 12:28:34;;;;;;;;;;;7.40;99.90;;;;;;5065135;28;20019;-73
2021/11/15 12:31:00;;;;;;;;;;;7.50;99.90;;;;;;5041333;28;19948;-73
2021/11/15 12:33:33;;;;;;;;;;;7.50;99.90;;;;;;5067677;28;19950;-73
2021/11/15 12:35:58;;;;;;;;;;;7.30;99.90;;;;;;5067021;28;20361;-75
2021/11/15 12:38:30;;;;;;;;;;;7.20;99.90;;;;;;5064909;28;20004;-73
2021/11/15 12:40:55;;;;;;;;;;;7.40;99.90;;;;;;5048644;28;19943;-73
2021/11/15 12:43:21;;;;;;;;;;;7.20;99.90;;;;;;5068539;28;20435;-73
2021/11/15 12:46:05;;;;;;;;;;;7.30;99.90;;;;;;5069342;28;19936;-73
2021/11/15 12:48:35;;;;;;;;;;;7.50;99.90;;;;;;5069899;28;19970;-75
2021/11/15 12:51:11;;;;;;;;;;;7.40;99.90;;;;;;5048089;28;20440;-75
2021/11/15 12:53:45;;;;;;;;;;;7.50;99.90;;;;;;5056848;28;19982;-74
2021/11/15 12:56:12;;;;;;;;;;;7.20;99.90;;;;;;5068293;28;19973;-75
2021/11/15 12:58:41;;;;;;;;;;;7.10;99.90;;;;;;5042063;28;20031;-72
2021/11/15 13:01:06;;;;;;;;;;;7.00;99.90;;;;;;5059579;28;19974;-75
2021/11/15 13:03:32;;;;;;;;;;;7.10;99.90;;;;;;5062766;28;19982;-75
2021/11/15 13:05:58;;;;;;;;;;;7.10;99.90;;;;;;5044859;28;19942;-75
2021/11/15 13:08:24;;;;;;;;;;;7.20;99.90;;;;;;5063576;28;20017;-75
2021/11/15 13:10:50;;;;;;;;;;;7.20;99.90;;;;;;5070339;28;20042;-75
2021/11/15 13:13:16;;;;;;;;;;;7.20;99.90;;;;;;5064420;28;19995;-72
2021/11/15 13:15:42;;;;;;;;;;;7.40;99.90;;;;;;5051047;28;19941;-72
2021/11/15 13:18:07;;;;;;;;;;;7.20;99.90;;;;;;5065010;28;19954;-74
2021/11/15 13:20:33;;;;;;;;;;;7.20;99.90;;;;;;5047978;28;19946;-74
2021/11/15 13:22:58;;;;;;;;;;;7.10;99.90;;;;;;5048179;28;20291;-73
2021/11/15 13:25:27;;;;;;;;;;;7.20;99.90;;;;;;5066615;28;19943;-72
2021/11/15 13:27:52;;;;;;;;;;;7.20;99.90;;;;;;5064339;28;19953;-72
2021/11/15 13:30:19;;;;;;;;;;;7.30;99.90;;;;;;5066433;28;20321;-72
2021/11/15 13:32:46;;;;;;;;;;;7.40;99.90;;;;;;5048319;28;19948;-72
2021/11/15 13:35:12;;;;;;;;;;;7.20;99.90;;;;;;5065891;28;19945;-72
2021/11/15 13:37:37;;;;;;;;;;;7.40;99.90;;;;;;5057941;28;20345;-72
2021/11/15 13:40:04;;;;;;;;;;;7.30;99.90;;;;;;5042005;28;19951;-72
2021/11/15 13:42:29;;;;;;;;;;;7.20;99.90;;;;;;5051086;28;19961;-72
2021/11/15 13:44:55;;;;;;;;;;;7.30;99.90;;;;;;5073069;28;19948;-72
2021/11/15 13:47:21;;;;;;;;;;;7.20;99.90;;;;;;5070671;28;19941;-72
2021/11/15 13:49:46;;;;;;;;;;;7.20;99.90;;;;;;5059958;28;19978;-72
2021/11/15 13:52:12;;;;;;;;;;;7.00;99.90;;;;;;5050179;28;20383;-72
2021/11/15 13:54:40;;;;;;;;;;;7.00;99.90;;;;;;5066232;28;19936;-72
2021/11/15 13:57:05;;;;;;;;;;;7.20;99.90;;;;;;5059678;28;20050;-72
2021/11/15 13:59:31;;;;;;;;;;;7.10;99.90;;;;;;5066468;28;20046;-72
2021/11/15 14:01:56;;;;;;;;;;;7.00;99.90;;;;;;5050415;28;20003;-72
2021/11/15 14:04:22;;;;;;;;;;;7.20;99.90;;;;;;5063687;28;19954;-72
2021/11/15 14:06:47;;;;;;;;;;;7.20;99.90;;;;;;5059800;28;20433;-72
2021/11/15 14:09:13;;;;;;;;;;;7.20;99.90;;;;;;5068893;28;19949;-72
2021/11/15 14:11:38;;;;;;;;;;;7.20;99.90;;;;;;5045435;28;20042;-72
2021/11/15 14:14:04;;;;;;;;;;;7.00;99.90;;;;;;5062936;28;20292;-73
2021/11/15 14:16:29;;;;;;;;;;;7.10;99.90;;;;;;5067365;28;19933;-73
2021/11/15 14:18:55;;;;;;;;;;;7.00;99.90;;;;;;5069403;28;19969;-73
2021/11/15 14:21:21;;;;;;;;;;;6.90;99.90;;;;;;5067661;28;19934;-73
2021/11/15 14:23:46;;;;;;;;;;;7.00;99.90;;;;;;5060547;28;20490;-73
2021/11/15 14:26:12;;;;;;;;;;;7.20;99.90;;;;;;5045179;28;19933;-73
2021/11/15 14:28:37;;;;;;;;;;;7.10;99.90;;;;;;5050116;28;19923;-73
2021/11/15 14:31:03;;;;;;;;;;;7.00;99.90;;;;;;5046763;28;19940;-73
2021/11/15 14:33:29;;;;;;;;;;;6.90;99.90;;;;;;5067512;28;20040;-73
2021/11/15 14:35:57;;;;;;;;;;;6.90;99.90;;;;;;5062723;28;19932;-74